createdAt,value
2023-01-11T00:00:39.900Z,6.30
2023-01-11T00:03:07.325Z,6.33
2023-01-11T00:05:39.321Z,6.41
2023-01-11T00:08:06.805Z,6.35
2023-01-11T00:10:34.305Z,6.42
2023-01-11T00:13:01.882Z,6.43
2023-01-11T00:15:28.597Z,6.44
2023-01-11T00:17:58.487Z,6.41
2023-01-11T00:20:25.623Z,6.45
2023-01-11T00:22:52.465Z,6.47
2023-01-11T00:25:19.344Z,6.49
2023-01-11T00:27:47.428Z,6.48
2023-01-11T00:30:14.214Z,6.50
2023-01-11T00:32:40.916Z,6.54
2023-01-11T00:35:08.669Z,6.54
2023-01-11T00:37:35.587Z,6.54
2023-01-11T00:40:05.688Z,6.52
2023-01-11T00:42:51.101Z,6.51
2023-01-11T00:45:36.390Z,6.53
2023-01-11T00:48:06.066Z,6.57
2023-01-11T00:50:38.827Z,6.62
2023-01-11T00:53:07.284Z,6.61
2023-01-11T00:55:34.283Z,6.59
2023-01-11T00:58:01.656Z,6.61
2023-01-11T01:00:29.389Z,6.63
2023-01-11T01:02:56.189Z,6.68
2023-01-11T01:05:22.914Z,6.78
2023-01-11T01:07:50.142Z,6.69
2023-01-11T01:10:18.571Z,6.76
2023-01-11T01:13:04.742Z,6.77
2023-01-11T01:15:32.157Z,6.81
2023-01-11T01:17:58.936Z,6.80
2023-01-11T01:20:26.235Z,6.82
2023-01-11T01:22:52.906Z,6.85
2023-01-11T01:25:19.926Z,6.83
2023-01-11T01:27:46.772Z,6.91
2023-01-11T01:30:13.936Z,6.88
2023-01-11T01:32:42.922Z,6.82
2023-01-11T01:35:09.894Z,6.96
2023-01-11T01:37:37.139Z,6.88
2023-01-11T01:40:05.320Z,6.92
2023-01-11T01:42:32.009Z,6.94
2023-01-11T01:45:07.059Z,6.91
2023-01-11T01:47:45.580Z,6.93
2023-01-11T01:50:25.675Z,6.99
2023-01-11T01:52:57.810Z,6.98
2023-01-11T01:55:28.946Z,7.05
2023-01-11T01:57:57.828Z,7.08
2023-01-11T02:00:24.642Z,7.17
2023-01-11T02:02:52.219Z,7.20
2023-01-11T02:05:19.181Z,7.22
2023-01-11T02:07:47.344Z,7.30
2023-01-11T02:10:18.417Z,7.27
2023-01-11T02:12:51.073Z,7.37
2023-01-11T02:15:20.161Z,7.26
2023-01-11T02:17:46.979Z,7.29
2023-01-11T02:20:29.105Z,7.34
2023-01-11T02:22:58.893Z,7.45
2023-01-11T02:26:02.643Z,7.50
2023-01-11T02:29:16.855Z,7.41
2023-01-11T02:32:00.351Z,7.42
2023-01-11T02:34:32.447Z,7.43
2023-01-11T02:37:05.090Z,7.43
2023-01-11T02:40:03.105Z,7.58
2023-01-11T02:43:00.398Z,7.53
2023-01-11T02:45:42.267Z,7.55
2023-01-11T02:48:14.651Z,7.69
2023-01-11T02:50:48.476Z,7.58
2023-01-11T02:53:37.182Z,7.64
2023-01-11T02:56:09.857Z,7.60
2023-01-11T02:58:38.973Z,7.65
2023-01-11T03:01:06.296Z,7.68
2023-01-11T03:03:33.847Z,7.73
2023-01-11T03:06:33.111Z,7.77
2023-01-11T03:09:15.185Z,7.80
2023-01-11T03:12:29.001Z,7.77
2023-01-11T03:15:07.763Z,7.83
2023-01-11T03:18:00.641Z,7.94
2023-01-11T03:20:35.614Z,7.89
2023-01-11T03:23:41.006Z,7.86
2023-01-11T03:26:21.627Z,7.91
2023-01-11T03:29:27.095Z,7.98
2023-01-11T03:32:09.313Z,8.01
2023-01-11T03:34:48.243Z,8.01
2023-01-11T03:37:31.533Z,7.97
2023-01-11T03:40:11.672Z,8.04
2023-01-11T03:43:04.594Z,8.16
2023-01-11T03:45:38.484Z,8.04
2023-01-11T03:48:09.907Z,8.06
2023-01-11T03:50:41.044Z,8.12
2023-01-11T03:53:09.962Z,8.13
2023-01-11T03:55:44.492Z,8.19
2023-01-11T03:58:11.313Z,8.17
2023-01-11T04:00:38.177Z,8.18
2023-01-11T04:03:05.961Z,8.16
2023-01-11T04:05:35.465Z,8.17
2023-01-11T04:08:02.207Z,8.26
2023-01-11T04:10:29.398Z,8.20
2023-01-11T04:12:56.300Z,8.25
2023-01-11T04:15:23.186Z,8.29
2023-01-11T04:17:51.370Z,8.31
2023-01-11T04:20:18.159Z,8.28
2023-01-11T04:22:48.282Z,8.37
2023-01-11T04:25:16.811Z,8.36
2023-01-11T04:27:44.838Z,8.33
2023-01-11T04:30:19.003Z,8.40
2023-01-11T04:32:49.101Z,8.42
2023-01-11T04:35:16.387Z,8.47
2023-01-11T04:37:45.386Z,8.48
2023-01-11T04:40:15.095Z,8.40
2023-01-11T04:42:49.271Z,8.50
2023-01-11T04:45:18.692Z,8.45
2023-01-11T04:47:59.518Z,8.51
2023-01-11T04:50:28.128Z,8.51
2023-01-11T04:52:55.192Z,8.56
2023-01-11T04:55:22.017Z,8.53
2023-01-11T04:57:48.777Z,8.59
2023-01-11T05:00:19.305Z,8.58
2023-01-11T05:02:46.300Z,8.65
2023-01-11T05:05:17.498Z,8.61
2023-01-11T05:07:44.416Z,8.70
2023-01-11T05:10:11.582Z,8.65
2023-01-11T05:12:38.760Z,8.66
2023-01-11T05:15:07.061Z,8.80
2023-01-11T05:17:34.112Z,8.79
2023-01-11T05:20:01.042Z,8.76
2023-01-11T05:22:27.811Z,8.73
2023-01-11T05:24:54.477Z,8.79
2023-01-11T05:27:21.394Z,8.76
2023-01-11T05:29:48.345Z,8.79
2023-01-11T05:32:15.953Z,8.84
2023-01-11T05:34:42.824Z,8.89
2023-01-11T05:37:10.743Z,8.90
2023-01-11T05:39:37.841Z,8.95
2023-01-11T05:42:06.943Z,9.03
2023-01-11T05:44:52.199Z,9.00
2023-01-11T05:47:19.242Z,9.07
2023-01-11T05:49:46.757Z,9.07
2023-01-11T05:52:13.486Z,9.04
2023-01-11T05:54:40.872Z,9.08
2023-01-11T05:57:11.140Z,9.09
2023-01-11T05:59:37.971Z,9.10
2023-01-11T06:02:05.299Z,9.17
2023-01-11T06:04:32.021Z,9.20
2023-01-11T06:06:58.831Z,9.17
2023-01-11T06:09:25.978Z,9.11
2023-01-11T06:11:52.845Z,9.12
2023-01-11T06:14:19.715Z,9.20
2023-01-11T06:16:46.676Z,9.12
2023-01-11T06:19:13.844Z,9.12
2023-01-11T06:21:45.054Z,9.10
2023-01-11T06:24:13.991Z,9.20
2023-01-11T06:26:42.059Z,9.27
2023-01-11T06:29:08.802Z,9.21
2023-01-11T06:31:36.058Z,9.26
2023-01-11T06:34:02.796Z,9.20
2023-01-11T06:36:29.943Z,9.24
2023-01-11T06:38:56.677Z,9.19
2023-01-11T06:41:23.358Z,9.27
2023-01-11T06:43:50.470Z,9.31
2023-01-11T06:46:17.276Z,9.29
2023-01-11T06:48:44.539Z,9.23
2023-01-11T06:51:12.310Z,9.23
2023-01-11T06:53:40.153Z,9.26
2023-01-11T06:56:07.627Z,9.39
2023-01-11T06:58:34.326Z,9.28
2023-01-11T07:01:01.367Z,9.23
2023-01-11T07:03:28.266Z,9.33
2023-01-11T07:05:57.076Z,9.32
2023-01-11T07:08:27.553Z,9.30
2023-01-11T07:10:55.234Z,9.36
2023-01-11T07:13:29.554Z,9.34
2023-01-11T07:16:00.689Z,9.45
2023-01-11T07:18:31.891Z,9.39
2023-01-11T07:21:02.464Z,9.37
2023-01-11T07:23:29.153Z,9.37
2023-01-11T07:25:56.238Z,9.41
2023-01-11T07:28:23.015Z,9.36
2023-01-11T07:30:58.174Z,9.38
2023-01-11T07:33:26.324Z,9.40
2023-01-11T07:35:53.576Z,9.36
2023-01-11T07:38:20.283Z,9.43
2023-01-11T07:40:47.151Z,9.33
2023-01-11T07:43:15.092Z,9.36
2023-01-11T07:45:46.395Z,9.36
2023-01-11T07:48:16.730Z,9.39
2023-01-11T07:50:45.303Z,9.35
2023-01-11T07:53:13.300Z,9.33
2023-01-11T07:55:40.932Z,9.38
2023-01-11T07:58:10.834Z,9.41
2023-01-11T08:00:37.657Z,9.40
2023-01-11T08:03:04.587Z,9.39
2023-01-11T08:05:31.425Z,9.55
2023-01-11T08:07:58.510Z,9.69
2023-01-11T08:10:25.315Z,9.57
2023-01-11T08:13:10.631Z,9.56
2023-01-11T08:15:37.432Z,9.57
2023-01-11T08:18:05.832Z,9.57
2023-01-11T08:20:32.741Z,9.55
2023-01-11T08:23:05.825Z,9.62
2023-01-11T08:25:33.524Z,9.64
2023-01-11T08:28:02.269Z,9.64
2023-01-11T08:30:29.741Z,9.66
2023-01-11T08:32:57.591Z,9.63
2023-01-11T08:35:27.751Z,9.66
2023-01-11T08:37:54.510Z,9.70
2023-01-11T08:40:23.867Z,9.68
2023-01-11T08:43:00.162Z,9.68
2023-01-11T08:45:26.851Z,9.63
2023-01-11T08:47:54.813Z,9.68
2023-01-11T08:50:22.537Z,9.76
2023-01-11T08:52:51.145Z,9.73
2023-01-11T08:55:18.649Z,9.73
2023-01-11T08:57:46.032Z,9.69
2023-01-11T09:00:13.666Z,9.71
2023-01-11T09:02:40.400Z,9.72
2023-01-11T09:05:07.458Z,9.81
2023-01-11T09:07:34.182Z,9.74
2023-01-11T09:10:00.991Z,9.73
2023-01-11T09:12:27.786Z,9.74
2023-01-11T09:14:54.531Z,9.66
2023-01-11T09:17:21.267Z,9.69
2023-01-11T09:19:47.981Z,9.68
2023-01-11T09:22:14.951Z,9.67
2023-01-11T09:24:41.768Z,9.66
2023-01-11T09:27:09.510Z,9.64
2023-01-11T09:29:37.378Z,9.63
2023-01-11T09:32:04.926Z,9.61
2023-01-11T09:34:31.956Z,9.67
2023-01-11T09:37:00.751Z,9.59
2023-01-11T09:39:28.895Z,9.59
2023-01-11T09:42:07.980Z,9.59
2023-01-11T09:44:37.875Z,9.57
2023-01-11T09:47:16.661Z,9.60
2023-01-11T09:49:54.570Z,9.64
2023-01-11T09:52:33.524Z,9.58
2023-01-11T09:55:01.362Z,9.58
2023-01-11T09:57:53.899Z,9.58
2023-01-11T10:00:27.203Z,9.54
2023-01-11T10:03:34.449Z,9.53
2023-01-11T10:06:23.077Z,9.54
2023-01-11T10:18:34.073Z,9.63
2023-01-11T10:18:49.381Z,9.65
2023-01-11T10:21:31.329Z,9.65
2023-01-11T10:24:12.497Z,9.73
2023-01-11T10:26:40.381Z,9.72
2023-01-11T10:29:22.364Z,9.72
2023-01-11T10:32:02.602Z,9.75
2023-01-11T10:34:59.060Z,9.75
2023-01-11T10:37:58.018Z,9.81
2023-01-11T10:40:39.118Z,9.74
2023-01-11T10:43:24.273Z,9.78
2023-01-11T10:46:27.224Z,9.78
2023-01-11T10:49:28.615Z,9.75
2023-01-11T10:52:04.027Z,9.75
2023-01-11T10:54:33.347Z,9.66
2023-01-11T10:57:23.006Z,9.79
2023-01-11T11:00:00.041Z,9.74
2023-01-11T11:02:38.631Z,9.68
2023-01-11T11:05:28.701Z,9.67
2023-01-11T11:08:01.046Z,9.72
2023-01-11T11:10:50.792Z,9.68
2023-01-11T11:13:32.577Z,9.75
2023-01-11T11:16:17.997Z,9.81
2023-01-11T11:18:44.650Z,9.77
2023-01-11T11:21:23.825Z,9.75
2023-01-11T11:23:57.478Z,9.74
2023-01-11T11:26:31.332Z,9.76
2023-01-11T11:29:07.300Z,9.76
2023-01-11T11:31:37.403Z,9.82
2023-01-11T11:34:07.427Z,9.70
2023-01-11T11:36:46.343Z,9.64
2023-01-11T11:39:25.946Z,9.67
2023-01-11T11:41:58.305Z,9.68
2023-01-11T11:44:27.749Z,9.72
2023-01-11T11:47:03.044Z,9.71
2023-01-11T11:49:32.177Z,9.73
2023-01-11T11:52:00.954Z,9.75
2023-01-11T11:54:27.624Z,9.71
2023-01-11T11:56:57.323Z,9.69
2023-01-11T11:59:28.491Z,9.71
2023-01-11T12:02:04.093Z,9.66
2023-01-11T12:04:48.583Z,9.61
2023-01-11T12:07:21.675Z,9.61
2023-01-11T12:09:55.082Z,9.63
2023-01-11T12:12:26.381Z,9.66
2023-01-11T12:15:09.555Z,9.64
2023-01-11T12:17:37.050Z,9.68
2023-01-11T12:20:23.819Z,9.72
2023-01-11T12:23:09.100Z,9.63
2023-01-11T12:25:54.678Z,9.66
2023-01-11T12:28:46.119Z,9.66
2023-01-11T12:31:34.552Z,9.62
2023-01-11T12:34:16.532Z,9.59
2023-01-11T12:37:05.195Z,9.60
2023-01-11T12:39:40.914Z,9.58
2023-01-11T12:42:21.865Z,9.56
2023-01-11T12:44:58.493Z,9.51
2023-01-11T12:47:56.473Z,9.45
2023-01-11T12:51:17.116Z,9.37
2023-01-11T12:54:05.157Z,9.36
2023-01-11T12:56:51.903Z,9.31
2023-01-11T12:59:29.442Z,9.19
2023-01-11T13:02:21.113Z,9.25
2023-01-11T13:05:26.856Z,9.22
2023-01-11T13:07:56.479Z,9.23
2023-01-11T13:10:35.675Z,9.19
2023-01-11T13:13:36.425Z,9.20
2023-01-11T13:16:14.305Z,9.13
2023-01-11T13:18:45.274Z,9.18
2023-01-11T13:21:32.616Z,9.15
2023-01-11T13:24:10.698Z,9.14
2023-01-11T13:26:44.904Z,9.11
2023-01-11T13:29:17.125Z,9.12
2023-01-11T13:31:46.934Z,9.27
2023-01-11T13:34:25.321Z,9.29
2023-01-11T13:36:59.598Z,9.39
2023-01-11T13:39:40.797Z,9.45
2023-01-11T13:42:19.224Z,9.44
2023-01-11T13:45:00.090Z,9.43
2023-01-11T13:47:37.622Z,9.45
2023-01-11T13:50:04.348Z,9.32
2023-01-11T13:52:58.404Z,9.19
2023-01-11T13:55:31.959Z,9.13
2023-01-11T13:58:05.874Z,9.13
2023-01-11T14:00:41.715Z,9.01
2023-01-11T14:03:42.589Z,9.04
2023-01-11T14:06:22.361Z,9.01
2023-01-11T14:09:05.955Z,8.97
2023-01-11T14:12:09.961Z,8.92
2023-01-11T14:15:09.853Z,8.86
2023-01-11T14:17:55.531Z,8.92
2023-01-11T14:20:40.443Z,8.83
2023-01-11T14:23:13.937Z,8.79
2023-01-11T14:26:09.439Z,8.75
2023-01-11T14:28:59.825Z,8.79
2023-01-11T14:31:32.411Z,8.79
2023-01-11T14:34:36.202Z,8.74
2023-01-11T14:37:40.460Z,8.65
2023-01-11T14:40:42.024Z,8.59
2023-01-11T14:43:12.842Z,8.66
2023-01-11T14:45:48.565Z,8.60
2023-01-11T14:48:28.558Z,8.58
2023-01-11T14:51:05.730Z,8.59
2023-01-11T14:53:39.530Z,8.64
2023-01-11T14:56:43.947Z,8.62
2023-01-11T14:59:40.559Z,8.65
2023-01-11T15:02:14.658Z,8.68
2023-01-11T15:04:56.535Z,8.75
2023-01-11T15:07:31.475Z,8.67
2023-01-11T15:10:00.422Z,8.67
2023-01-11T15:12:38.455Z,8.71
2023-01-11T15:15:22.669Z,8.73
2023-01-11T15:18:15.533Z,8.82
2023-01-11T15:20:56.654Z,8.79
2023-01-11T15:23:24.599Z,8.85
2023-01-11T15:26:01.051Z,8.88
2023-01-11T15:28:32.958Z,8.92
2023-01-11T15:31:03.338Z,8.88
2023-01-11T15:33:45.891Z,8.91
2023-01-11T15:36:12.616Z,8.90
2023-01-11T15:38:54.359Z,8.90
2023-01-11T15:41:53.123Z,8.82
2023-01-11T15:44:32.445Z,8.70
2023-01-11T15:47:11.105Z,8.69
2023-01-11T15:49:38.034Z,8.64
2023-01-11T15:52:50.503Z,8.58
2023-01-11T15:55:55.374Z,8.51
2023-01-11T15:58:40.440Z,8.54
2023-01-11T16:01:28.446Z,8.46
2023-01-11T16:04:32.120Z,8.42
2023-01-11T16:07:08.103Z,8.33
2023-01-11T16:09:57.957Z,8.39
2023-01-11T16:12:42.967Z,8.29
2023-01-11T16:15:36.879Z,8.38
2023-01-11T16:18:20.021Z,8.42
2023-01-11T16:20:59.701Z,8.40
2023-01-11T16:23:26.359Z,8.31
2023-01-11T16:25:57.393Z,8.24
2023-01-11T16:28:25.638Z,8.18
2023-01-11T16:31:01.756Z,8.21
2023-01-11T16:33:31.555Z,8.21
2023-01-11T16:36:10.514Z,8.20
2023-01-11T16:39:07.338Z,8.20
2023-01-11T16:42:07.762Z,8.12
2023-01-11T16:45:00.045Z,8.04
2023-01-11T16:47:27.024Z,8.15
2023-01-11T16:50:33.808Z,8.08
2023-01-11T16:53:06.164Z,7.95
2023-01-11T16:55:34.026Z,7.94
2023-01-11T16:58:04.380Z,8.01
2023-01-11T17:00:41.749Z,8.08
2023-01-11T17:03:24.084Z,8.07
2023-01-11T17:06:09.226Z,8.05
2023-01-11T17:08:44.199Z,8.11
2023-01-11T17:11:10.869Z,8.03
2023-01-11T17:13:59.165Z,7.90
2023-01-11T17:16:32.053Z,7.92
2023-01-11T17:19:05.736Z,7.76
2023-01-11T17:21:32.379Z,7.75
2023-01-11T17:24:01.957Z,7.78
2023-01-11T17:26:37.905Z,7.98
2023-01-11T17:29:05.482Z,8.06
2023-01-11T17:31:36.943Z,7.85
2023-01-11T17:34:24.371Z,7.79
2023-01-11T17:36:51.530Z,7.71
2023-01-11T17:39:32.180Z,7.73
2023-01-11T17:42:30.088Z,7.78
2023-01-11T17:45:13.074Z,7.87
2023-01-11T17:47:41.094Z,7.91
2023-01-11T17:50:26.440Z,7.81
2023-01-11T17:53:03.005Z,7.83
2023-01-11T17:55:29.991Z,7.90
2023-01-11T17:58:19.018Z,7.90
2023-01-11T18:01:07.763Z,7.82
2023-01-11T18:03:43.702Z,7.94
2023-01-11T18:06:11.995Z,7.87
2023-01-11T18:08:38.887Z,7.98
2023-01-11T18:11:05.978Z,8.10
2023-01-11T18:13:34.905Z,7.95
2023-01-11T18:16:02.528Z,8.01
2023-01-11T18:18:44.927Z,8.00
2023-01-11T18:21:27.014Z,7.99
2023-01-11T18:24:08.926Z,7.91
2023-01-11T18:26:40.399Z,7.95
2023-01-11T18:29:19.380Z,7.88
2023-01-11T18:31:46.397Z,7.79
2023-01-11T18:34:13.121Z,7.66
2023-01-11T18:36:39.857Z,7.74
2023-01-11T18:39:11.807Z,7.77
2023-01-11T18:41:57.974Z,7.88
2023-01-11T18:44:25.051Z,7.84
2023-01-11T18:46:51.840Z,7.79
2023-01-11T18:49:18.553Z,7.77
2023-01-11T18:51:45.333Z,7.75
2023-01-11T18:54:16.547Z,7.73
2023-01-11T18:56:43.389Z,7.71
2023-01-11T18:59:10.109Z,7.79
2023-01-11T19:01:52.715Z,7.66
2023-01-11T19:04:24.838Z,7.60
2023-01-11T19:06:52.469Z,7.68
2023-01-11T19:09:19.301Z,7.69
2023-01-11T19:11:46.182Z,7.60
2023-01-11T19:14:12.867Z,7.77
2023-01-11T19:16:39.749Z,7.74
2023-01-11T19:19:06.569Z,7.65
2023-01-11T19:21:35.591Z,7.68
2023-01-11T19:24:02.542Z,7.73
2023-01-11T19:26:32.001Z,7.73
2023-01-11T19:28:58.693Z,7.74
2023-01-11T19:31:25.601Z,7.88
2023-01-11T19:33:52.323Z,7.69
2023-01-11T19:36:19.268Z,7.66
2023-01-11T19:38:46.039Z,7.51
2023-01-11T19:41:15.471Z,7.57
2023-01-11T19:43:45.063Z,7.52
2023-01-11T19:46:13.589Z,7.64
2023-01-11T19:48:40.496Z,7.70
2023-01-11T19:51:10.664Z,7.61
2023-01-11T19:53:37.585Z,7.60
2023-01-11T19:56:06.407Z,7.59
2023-01-11T19:58:37.089Z,7.49
2023-01-11T20:01:11.521Z,7.61
2023-01-11T20:03:41.251Z,7.54
2023-01-11T20:06:09.052Z,7.61
2023-01-11T20:08:41.166Z,7.63
2023-01-11T20:11:10.981Z,7.70
2023-01-11T20:13:37.751Z,7.65
2023-01-11T20:16:12.979Z,7.58
2023-01-11T20:18:42.415Z,7.61
2023-01-11T20:21:13.762Z,7.79
2023-01-11T20:23:40.448Z,7.61
2023-01-11T20:26:07.834Z,7.53
2023-01-11T20:28:34.798Z,7.48
2023-01-11T20:31:06.706Z,7.42
2023-01-11T20:33:33.630Z,7.57
2023-01-11T20:36:00.347Z,7.44
2023-01-11T20:38:29.018Z,7.55
2023-01-11T20:40:55.771Z,7.48
2023-01-11T20:43:22.621Z,7.50
2023-01-11T20:45:59.404Z,7.45
2023-01-11T20:48:26.188Z,7.58
2023-01-11T20:50:52.954Z,7.46
2023-01-11T20:53:19.668Z,7.33
2023-01-11T20:55:46.584Z,7.37
2023-01-11T20:58:13.518Z,7.34
2023-01-11T21:00:40.274Z,7.35
2023-01-11T21:03:06.955Z,7.38
2023-01-11T21:05:37.277Z,7.38
2023-01-11T21:08:04.101Z,7.42
2023-01-11T21:10:30.791Z,7.36
2023-01-11T21:15:24.948Z,7.56
2023-01-11T21:17:51.600Z,7.59
2023-01-11T21:20:18.378Z,7.54
2023-01-11T21:22:45.092Z,7.56
2023-01-11T21:25:11.729Z,7.51
2023-01-11T21:27:39.061Z,7.32
2023-01-11T21:30:06.356Z,7.40
2023-01-11T21:32:33.091Z,7.37
2023-01-11T21:34:59.738Z,7.32
2023-01-11T21:37:26.508Z,7.32
2023-01-11T21:39:53.304Z,7.30
2023-01-11T21:42:19.971Z,7.32
2023-01-11T21:44:46.623Z,7.40
2023-01-11T21:47:14.755Z,7.44
2023-01-11T21:49:41.429Z,7.44
2023-01-11T21:52:08.254Z,7.47
2023-01-11T21:54:35.046Z,7.48
2023-01-11T21:57:01.816Z,7.56
2023-01-11T21:59:30.059Z,7.53
2023-01-11T22:02:00.111Z,7.60
2023-01-11T22:04:26.813Z,7.58
2023-01-11T22:06:59.423Z,7.60
2023-01-11T22:09:27.593Z,7.59
2023-01-11T22:11:55.494Z,7.72
2023-01-11T22:14:22.217Z,7.62
2023-01-11T22:16:49.019Z,7.69
2023-01-11T22:19:16.223Z,7.72
2023-01-11T22:21:43.407Z,7.73
2023-01-11T22:24:11.895Z,7.79
2023-01-11T22:26:39.259Z,7.72
2023-01-11T22:29:18.068Z,7.74
2023-01-11T22:31:51.459Z,7.77
2023-01-11T22:34:19.309Z,7.76
2023-01-11T22:36:47.049Z,7.86
2023-01-11T22:39:15.589Z,7.77
2023-01-11T22:41:45.621Z,7.83
2023-01-11T22:44:13.515Z,7.82
2023-01-11T22:46:40.517Z,7.79
2023-01-11T22:49:07.440Z,7.73
2023-01-11T22:51:34.742Z,7.87
2023-01-11T22:54:01.971Z,7.71
2023-01-11T22:56:29.496Z,7.66
2023-01-11T22:58:57.143Z,7.72
2023-01-11T23:01:43.157Z,7.79
2023-01-11T23:04:12.813Z,7.85
2023-01-11T23:06:41.349Z,7.84
2023-01-11T23:09:14.784Z,7.76
2023-01-11T23:12:01.542Z,7.86
2023-01-11T23:14:33.233Z,7.86
2023-01-11T23:17:08.610Z,7.83
2023-01-11T23:19:40.638Z,7.90
2023-01-11T23:22:09.353Z,7.92
2023-01-11T23:24:37.695Z,7.84
2023-01-11T23:27:05.092Z,7.71
2023-01-11T23:29:31.957Z,7.71
2023-01-11T23:31:58.841Z,7.78
2023-01-11T23:34:25.600Z,7.72
2023-01-11T23:36:52.299Z,7.84
2023-01-11T23:39:19.364Z,7.70
2023-01-11T23:42:04.465Z,7.69
2023-01-11T23:44:31.574Z,7.76
2023-01-11T23:47:16.984Z,7.72
2023-01-11T23:49:43.831Z,7.69
2023-01-11T23:52:11.375Z,7.75
2023-01-11T23:54:38.180Z,7.84
2023-01-11T23:57:05.116Z,7.82
2023-01-11T23:59:32.372Z,7.79
